<?xml version="1.0" encoding="UTF-8" standalone="no" ?>
<gpx xmlns="http://www.topografix.com/GPX/1/1" xmlns:xsi="http://www.w3.org/2001/XMLSchema-instance" xsi:schemaLocation="http://www.topografix.com/GPX/1/1 http://www.topografix.com/GPX/1/1/gpx.xsd" version="1.1" creator="VisuGPX - https://www.visugpx.com">
  <metadata>
    <name>Raid Bulles : Barsuraubois</name>
    <desc><![CDATA[parcours RAID BULLES EN CHAMPAGNE 375KM]]></desc>
  </metadata>
  <wpt lat="48.1461" lon="4.76948">
    <ele>206.1</ele>
    <name><![CDATA[Ravitaillement chaud]]></name>
  </wpt>
  <wpt lat="48.14803" lon="4.83346">
    <ele>208.6</ele>
    <name><![CDATA[Départ réel]]></name>
  </wpt>
  <wpt lat="48.13585" lon="4.66919">
    <ele>253.9</ele>
    <name><![CDATA[Gravel début section]]></name>
  </wpt>
  <wpt lat="48.21735" lon="4.71382">
    <ele>168.8</ele>
  </wpt>
  <trk>
    <name><![CDATA[48. Circuit Benedicte Longchamp sur Aujon 37 KM-17237788]]></name>
    <extensions>
      <line xmlns="http://www.topografix.com/GPX/gpx_style/0/2">
        <color>FF0000</color>
        <width>4</width>
      </line>
    </extensions>
    <trkseg>
      <trkpt lat="48.15071" lon="4.83271">
        <ele>195</ele>
        <time>2024-07-03T08:05:47Z</time>
      </trkpt>
      <trkpt lat="48.15068" lon="4.83277">
        <ele>195</ele>
        <time>2024-07-03T08:05:48Z</time>
      </trkpt>
      <trkpt lat="48.15081" lon="4.83264">
        <ele>194</ele>
        <time>2024-07-03T08:05:51Z</time>
      </trkpt>
      <trkpt lat="48.15093" lon="4.83259">
        <ele>194</ele>
        <time>2024-07-03T08:05:53Z</time>
      </trkpt>
      <trkpt lat="48.15083" lon="4.83263">
        <ele>194</ele>
        <time>2024-07-03T08:05:55Z</time>
      </trkpt>
      <trkpt lat="48.15069" lon="4.83277">
        <ele>195</ele>
        <time>2024-07-03T08:05:58Z</time>
      </trkpt>
      <trkpt lat="48.15079" lon="4.83261">
        <ele>194</ele>
        <time>2024-07-03T08:06:00Z</time>
      </trkpt>
      <trkpt lat="48.15097" lon="4.83264">
        <ele>194</ele>
        <time>2024-07-03T08:06:04Z</time>
      </trkpt>
      <trkpt lat="48.15232" lon="4.83337">
        <ele>193</ele>
        <time>2024-07-03T08:06:29Z</time>
      </trkpt>
      <trkpt lat="48.1524" lon="4.83356">
        <ele>193</ele>
        <time>2024-07-03T08:06:32Z</time>
      </trkpt>
      <trkpt lat="48.15229" lon="4.83432">
        <ele>193</ele>
        <time>2024-07-03T08:06:41Z</time>
      </trkpt>
      <trkpt lat="48.15209" lon="4.83652">
        <ele>193</ele>
        <time>2024-07-03T08:07:07Z</time>
      </trkpt>
      <trkpt lat="48.15214" lon="4.83689">
        <ele>193</ele>
        <time>2024-07-03T08:07:12Z</time>
      </trkpt>
      <trkpt lat="48.15212" lon="4.83751">
        <ele>194</ele>
        <time>2024-07-03T08:07:19Z</time>
      </trkpt>
      <trkpt lat="48.15196" lon="4.83906">
        <ele>193</ele>
        <time>2024-07-03T08:07:38Z</time>
      </trkpt>
      <trkpt lat="48.15101" lon="4.84274">
        <ele>197</ele>
        <time>2024-07-03T08:08:25Z</time>
      </trkpt>
      <trkpt lat="48.14972" lon="4.84692">
        <ele>203</ele>
        <time>2024-07-03T08:09:19Z</time>
      </trkpt>
      <trkpt lat="48.14949" lon="4.84771">
        <ele>202</ele>
        <time>2024-07-03T08:09:30Z</time>
      </trkpt>
      <trkpt lat="48.14944" lon="4.84803">
        <ele>202</ele>
        <time>2024-07-03T08:09:33Z</time>
      </trkpt>
      <trkpt lat="48.14943" lon="4.84837">
        <ele>202</ele>
        <time>2024-07-03T08:09:37Z</time>
      </trkpt>
      <trkpt lat="48.14953" lon="4.84906">
        <ele>203</ele>
        <time>2024-07-03T08:09:46Z</time>
      </trkpt>
      <trkpt lat="48.15006" lon="4.8505">
        <ele>206</ele>
        <time>2024-07-03T08:10:05Z</time>
      </trkpt>
      <trkpt lat="48.15019" lon="4.85119">
        <ele>210</ele>
        <time>2024-07-03T08:10:14Z</time>
      </trkpt>
      <trkpt lat="48.15013" lon="4.85334">
        <ele>218</ele>
        <time>2024-07-03T08:10:39Z</time>
      </trkpt>
      <trkpt lat="48.15016" lon="4.85427">
        <ele>219</ele>
        <time>2024-07-03T08:10:51Z</time>
      </trkpt>
      <trkpt lat="48.15026" lon="4.85466">
        <ele>219</ele>
        <time>2024-07-03T08:10:55Z</time>
      </trkpt>
      <trkpt lat="48.15075" lon="4.85598">
        <ele>217</ele>
        <time>2024-07-03T08:11:13Z</time>
      </trkpt>
      <trkpt lat="48.15102" lon="4.85646">
        <ele>215</ele>
        <time>2024-07-03T08:11:21Z</time>
      </trkpt>
      <trkpt lat="48.15147" lon="4.857">
        <ele>215</ele>
        <time>2024-07-03T08:11:31Z</time>
      </trkpt>
      <trkpt lat="48.15366" lon="4.85883">
        <ele>211</ele>
        <time>2024-07-03T08:12:16Z</time>
      </trkpt>
      <trkpt lat="48.15433" lon="4.85934">
        <ele>210</ele>
        <time>2024-07-03T08:12:29Z</time>
      </trkpt>
      <trkpt lat="48.15475" lon="4.8595">
        <ele>211</ele>
        <time>2024-07-03T08:12:37Z</time>
      </trkpt>
      <trkpt lat="48.15564" lon="4.85969">
        <ele>213</ele>
        <time>2024-07-03T08:12:53Z</time>
      </trkpt>
      <trkpt lat="48.15592" lon="4.85979">
        <ele>212</ele>
        <time>2024-07-03T08:12:58Z</time>
      </trkpt>
      <trkpt lat="48.15675" lon="4.86024">
        <ele>212</ele>
        <time>2024-07-03T08:13:14Z</time>
      </trkpt>
      <trkpt lat="48.15796" lon="4.86075">
        <ele>213</ele>
        <time>2024-07-03T08:13:36Z</time>
      </trkpt>
      <trkpt lat="48.15841" lon="4.86107">
        <ele>213</ele>
        <time>2024-07-03T08:13:45Z</time>
      </trkpt>
      <trkpt lat="48.15897" lon="4.8616">
        <ele>212</ele>
        <time>2024-07-03T08:13:57Z</time>
      </trkpt>
      <trkpt lat="48.15941" lon="4.86195">
        <ele>212</ele>
        <time>2024-07-03T08:14:05Z</time>
      </trkpt>
      <trkpt lat="48.15987" lon="4.86217">
        <ele>213</ele>
        <time>2024-07-03T08:14:14Z</time>
      </trkpt>
      <trkpt lat="48.16123" lon="4.86258">
        <ele>218</ele>
        <time>2024-07-03T08:14:39Z</time>
      </trkpt>
      <trkpt lat="48.16207" lon="4.86309">
        <ele>221</ele>
        <time>2024-07-03T08:14:55Z</time>
      </trkpt>
      <trkpt lat="48.16299" lon="4.86372">
        <ele>221</ele>
        <time>2024-07-03T08:15:13Z</time>
      </trkpt>
      <trkpt lat="48.16447" lon="4.86494">
        <ele>217</ele>
        <time>2024-07-03T08:15:43Z</time>
      </trkpt>
      <trkpt lat="48.16499" lon="4.86546">
        <ele>219</ele>
        <time>2024-07-03T08:15:54Z</time>
      </trkpt>
      <trkpt lat="48.16548" lon="4.86623">
        <ele>221</ele>
        <time>2024-07-03T08:16:07Z</time>
      </trkpt>
      <trkpt lat="48.16645" lon="4.86795">
        <ele>215</ele>
        <time>2024-07-03T08:16:33Z</time>
      </trkpt>
      <trkpt lat="48.16721" lon="4.86775">
        <ele>221</ele>
        <time>2024-07-03T08:16:47Z</time>
      </trkpt>
      <trkpt lat="48.16789" lon="4.86766">
        <ele>227</ele>
        <time>2024-07-03T08:16:59Z</time>
      </trkpt>
      <trkpt lat="48.16818" lon="4.86758">
        <ele>230</ele>
        <time>2024-07-03T08:17:05Z</time>
      </trkpt>
      <trkpt lat="48.16832" lon="4.86723">
        <ele>232</ele>
        <time>2024-07-03T08:17:09Z</time>
      </trkpt>
      <trkpt lat="48.16842" lon="4.86681">
        <ele>235</ele>
        <time>2024-07-03T08:17:15Z</time>
      </trkpt>
      <trkpt lat="48.16843" lon="4.86653">
        <ele>236</ele>
        <time>2024-07-03T08:17:18Z</time>
      </trkpt>
      <trkpt lat="48.16839" lon="4.86627">
        <ele>236</ele>
        <time>2024-07-03T08:17:21Z</time>
      </trkpt>
      <trkpt lat="48.16846" lon="4.86568">
        <ele>240</ele>
        <time>2024-07-03T08:17:28Z</time>
      </trkpt>
      <trkpt lat="48.16863" lon="4.86522">
        <ele>242</ele>
        <time>2024-07-03T08:17:35Z</time>
      </trkpt>
      <trkpt lat="48.16882" lon="4.8649">
        <ele>243</ele>
        <time>2024-07-03T08:17:40Z</time>
      </trkpt>
      <trkpt lat="48.16932" lon="4.86434">
        <ele>243</ele>
        <time>2024-07-03T08:17:51Z</time>
      </trkpt>
      <trkpt lat="48.16993" lon="4.86386">
        <ele>248</ele>
        <time>2024-07-03T08:18:03Z</time>
      </trkpt>
      <trkpt lat="48.17034" lon="4.86347">
        <ele>252</ele>
        <time>2024-07-03T08:18:12Z</time>
      </trkpt>
      <trkpt lat="48.17131" lon="4.86209">
        <ele>257</ele>
        <time>2024-07-03T08:18:35Z</time>
      </trkpt>
      <trkpt lat="48.17167" lon="4.8619">
        <ele>256</ele>
        <time>2024-07-03T08:18:42Z</time>
      </trkpt>
      <trkpt lat="48.17226" lon="4.86182">
        <ele>256</ele>
        <time>2024-07-03T08:18:53Z</time>
      </trkpt>
      <trkpt lat="48.17247" lon="4.86167">
        <ele>254</ele>
        <time>2024-07-03T08:18:57Z</time>
      </trkpt>
      <trkpt lat="48.1727" lon="4.86122">
        <ele>258</ele>
        <time>2024-07-03T08:19:04Z</time>
      </trkpt>
      <trkpt lat="48.17293" lon="4.86032">
        <ele>261</ele>
        <time>2024-07-03T08:19:15Z</time>
      </trkpt>
      <trkpt lat="48.1731" lon="4.86">
        <ele>262</ele>
        <time>2024-07-03T08:19:20Z</time>
      </trkpt>
      <trkpt lat="48.17376" lon="4.85893">
        <ele>269</ele>
        <time>2024-07-03T08:19:37Z</time>
      </trkpt>
      <trkpt lat="48.17412" lon="4.85851">
        <ele>270</ele>
        <time>2024-07-03T08:19:45Z</time>
      </trkpt>
      <trkpt lat="48.1745" lon="4.85815">
        <ele>271</ele>
        <time>2024-07-03T08:19:53Z</time>
      </trkpt>
      <trkpt lat="48.17528" lon="4.85753">
        <ele>270</ele>
        <time>2024-07-03T08:20:09Z</time>
      </trkpt>
      <trkpt lat="48.17562" lon="4.85738">
        <ele>272</ele>
        <time>2024-07-03T08:20:15Z</time>
      </trkpt>
      <trkpt lat="48.17595" lon="4.85736">
        <ele>272</ele>
        <time>2024-07-03T08:20:21Z</time>
      </trkpt>
      <trkpt lat="48.17632" lon="4.85745">
        <ele>272</ele>
        <time>2024-07-03T08:20:28Z</time>
      </trkpt>
      <trkpt lat="48.17668" lon="4.85764">
        <ele>273</ele>
        <time>2024-07-03T08:20:35Z</time>
      </trkpt>
      <trkpt lat="48.17719" lon="4.85799">
        <ele>273</ele>
        <time>2024-07-03T08:20:45Z</time>
      </trkpt>
      <trkpt lat="48.17745" lon="4.85822">
        <ele>273</ele>
        <time>2024-07-03T08:20:50Z</time>
      </trkpt>
      <trkpt lat="48.1776" lon="4.85826">
        <ele>274</ele>
        <time>2024-07-03T08:20:53Z</time>
      </trkpt>
      <trkpt lat="48.1777" lon="4.85824">
        <ele>276</ele>
        <time>2024-07-03T08:20:55Z</time>
      </trkpt>
      <trkpt lat="48.17783" lon="4.85809">
        <ele>278</ele>
        <time>2024-07-03T08:20:57Z</time>
      </trkpt>
      <trkpt lat="48.17812" lon="4.85736">
        <ele>278</ele>
        <time>2024-07-03T08:21:08Z</time>
      </trkpt>
      <trkpt lat="48.17835" lon="4.85706">
        <ele>279</ele>
        <time>2024-07-03T08:21:13Z</time>
      </trkpt>
      <trkpt lat="48.17851" lon="4.85696">
        <ele>281</ele>
        <time>2024-07-03T08:21:16Z</time>
      </trkpt>
      <trkpt lat="48.17895" lon="4.85685">
        <ele>286</ele>
        <time>2024-07-03T08:21:24Z</time>
      </trkpt>
      <trkpt lat="48.17913" lon="4.85676">
        <ele>288</ele>
        <time>2024-07-03T08:21:27Z</time>
      </trkpt>
      <trkpt lat="48.17989" lon="4.85584">
        <ele>293</ele>
        <time>2024-07-03T08:21:45Z</time>
      </trkpt>
      <trkpt lat="48.18019" lon="4.85562">
        <ele>296</ele>
        <time>2024-07-03T08:21:51Z</time>
      </trkpt>
      <trkpt lat="48.18039" lon="4.85556">
        <ele>297</ele>
        <time>2024-07-03T08:21:54Z</time>
      </trkpt>
      <trkpt lat="48.18132" lon="4.85562">
        <ele>302</ele>
        <time>2024-07-03T08:22:11Z</time>
      </trkpt>
      <trkpt lat="48.18176" lon="4.85549">
        <ele>304</ele>
        <time>2024-07-03T08:22:19Z</time>
      </trkpt>
      <trkpt lat="48.182" lon="4.85528">
        <ele>304</ele>
        <time>2024-07-03T08:22:24Z</time>
      </trkpt>
      <trkpt lat="48.1829" lon="4.85403">
        <ele>305</ele>
        <time>2024-07-03T08:22:46Z</time>
      </trkpt>
      <trkpt lat="48.1831" lon="4.85391">
        <ele>306</ele>
        <time>2024-07-03T08:22:49Z</time>
      </trkpt>
      <trkpt lat="48.18337" lon="4.85392">
        <ele>307</ele>
        <time>2024-07-03T08:22:54Z</time>
      </trkpt>
      <trkpt lat="48.184" lon="4.85425">
        <ele>314</ele>
        <time>2024-07-03T08:23:06Z</time>
      </trkpt>
      <trkpt lat="48.18438" lon="4.85433">
        <ele>317</ele>
        <time>2024-07-03T08:23:13Z</time>
      </trkpt>
      <trkpt lat="48.18494" lon="4.85461">
        <ele>321</ele>
        <time>2024-07-03T08:23:23Z</time>
      </trkpt>
      <trkpt lat="48.18541" lon="4.85501">
        <ele>323</ele>
        <time>2024-07-03T08:23:33Z</time>
      </trkpt>
      <trkpt lat="48.18579" lon="4.85526">
        <ele>324</ele>
        <time>2024-07-03T08:23:40Z</time>
      </trkpt>
      <trkpt lat="48.18781" lon="4.85679">
        <ele>324</ele>
        <time>2024-07-03T08:24:21Z</time>
      </trkpt>
      <trkpt lat="48.18793" lon="4.85683">
        <ele>323</ele>
        <time>2024-07-03T08:24:23Z</time>
      </trkpt>
      <trkpt lat="48.18811" lon="4.8568">
        <ele>322</ele>
        <time>2024-07-03T08:24:26Z</time>
      </trkpt>
      <trkpt lat="48.18885" lon="4.85649">
        <ele>319</ele>
        <time>2024-07-03T08:24:40Z</time>
      </trkpt>
      <trkpt lat="48.18906" lon="4.85645">
        <ele>318</ele>
        <time>2024-07-03T08:24:44Z</time>
      </trkpt>
      <trkpt lat="48.18925" lon="4.85648">
        <ele>318</ele>
        <time>2024-07-03T08:24:47Z</time>
      </trkpt>
      <trkpt lat="48.18947" lon="4.85664">
        <ele>317</ele>
        <time>2024-07-03T08:24:51Z</time>
      </trkpt>
      <trkpt lat="48.18967" lon="4.85695">
        <ele>316</ele>
        <time>2024-07-03T08:24:56Z</time>
      </trkpt>
      <trkpt lat="48.18986" lon="4.85745">
        <ele>314</ele>
        <time>2024-07-03T08:25:03Z</time>
      </trkpt>
      <trkpt lat="48.19009" lon="4.85834">
        <ele>312</ele>
        <time>2024-07-03T08:25:15Z</time>
      </trkpt>
      <trkpt lat="48.1901" lon="4.85899">
        <ele>309</ele>
        <time>2024-07-03T08:25:22Z</time>
      </trkpt>
      <trkpt lat="48.18999" lon="4.85984">
        <ele>306</ele>
        <time>2024-07-03T08:25:33Z</time>
      </trkpt>
      <trkpt lat="48.19" lon="4.86094">
        <ele>305</ele>
        <time>2024-07-03T08:25:46Z</time>
      </trkpt>
      <trkpt lat="48.1901" lon="4.86179">
        <ele>298</ele>
        <time>2024-07-03T08:25:56Z</time>
      </trkpt>
      <trkpt lat="48.19011" lon="4.86254">
        <ele>293</ele>
        <time>2024-07-03T08:26:05Z</time>
      </trkpt>
      <trkpt lat="48.19029" lon="4.86276">
        <ele>295</ele>
        <time>2024-07-03T08:26:09Z</time>
      </trkpt>
      <trkpt lat="48.19068" lon="4.86278">
        <ele>297</ele>
        <time>2024-07-03T08:26:16Z</time>
      </trkpt>
      <trkpt lat="48.19111" lon="4.86266">
        <ele>297</ele>
        <time>2024-07-03T08:26:24Z</time>
      </trkpt>
      <trkpt lat="48.19235" lon="4.86205">
        <ele>302</ele>
        <time>2024-07-03T08:26:47Z</time>
      </trkpt>
      <trkpt lat="48.19256" lon="4.86198">
        <ele>303</ele>
        <time>2024-07-03T08:26:51Z</time>
      </trkpt>
      <trkpt lat="48.19288" lon="4.86191">
        <ele>303</ele>
        <time>2024-07-03T08:26:56Z</time>
      </trkpt>
      <trkpt lat="48.19371" lon="4.86184">
        <ele>305</ele>
        <time>2024-07-03T08:27:11Z</time>
      </trkpt>
      <trkpt lat="48.19413" lon="4.86173">
        <ele>306</ele>
        <time>2024-07-03T08:27:19Z</time>
      </trkpt>
      <trkpt lat="48.19486" lon="4.8614">
        <ele>311</ele>
        <time>2024-07-03T08:27:32Z</time>
      </trkpt>
      <trkpt lat="48.19543" lon="4.86134">
        <ele>314</ele>
        <time>2024-07-03T08:27:42Z</time>
      </trkpt>
      <trkpt lat="48.1958" lon="4.8614">
        <ele>316</ele>
        <time>2024-07-03T08:27:49Z</time>
      </trkpt>
      <trkpt lat="48.19615" lon="4.86159">
        <ele>317</ele>
        <time>2024-07-03T08:27:56Z</time>
      </trkpt>
      <trkpt lat="48.19775" lon="4.86291">
        <ele>322</ele>
        <time>2024-07-03T08:28:28Z</time>
      </trkpt>
      <trkpt lat="48.19788" lon="4.86291">
        <ele>322</ele>
        <time>2024-07-03T08:28:31Z</time>
      </trkpt>
      <trkpt lat="48.19801" lon="4.8628">
        <ele>321</ele>
        <time>2024-07-03T08:28:33Z</time>
      </trkpt>
      <trkpt lat="48.19812" lon="4.86253">
        <ele>320</ele>
        <time>2024-07-03T08:28:37Z</time>
      </trkpt>
      <trkpt lat="48.1981" lon="4.86234">
        <ele>320</ele>
        <time>2024-07-03T08:28:39Z</time>
      </trkpt>
      <trkpt lat="48.19694" lon="4.86002">
        <ele>320</ele>
        <time>2024-07-03T08:29:14Z</time>
      </trkpt>
      <trkpt lat="48.19669" lon="4.85965">
        <ele>320</ele>
        <time>2024-07-03T08:29:20Z</time>
      </trkpt>
      <trkpt lat="48.19639" lon="4.8593">
        <ele>320</ele>
        <time>2024-07-03T08:29:27Z</time>
      </trkpt>
      <trkpt lat="48.19503" lon="4.85799">
        <ele>317</ele>
        <time>2024-07-03T08:29:55Z</time>
      </trkpt>
      <trkpt lat="48.19478" lon="4.85784">
        <ele>317</ele>
        <time>2024-07-03T08:30:00Z</time>
      </trkpt>
      <trkpt lat="48.19436" lon="4.85749">
        <ele>318</ele>
        <time>2024-07-03T08:30:09Z</time>
      </trkpt>
      <trkpt lat="48.19089" lon="4.85499">
        <ele>318</ele>
        <time>2024-07-03T08:31:17Z</time>
      </trkpt>
      <trkpt lat="48.19075" lon="4.85485">
        <ele>318</ele>
        <time>2024-07-03T08:31:20Z</time>
      </trkpt>
      <trkpt lat="48.18894" lon="4.85354">
        <ele>321</ele>
        <time>2024-07-03T08:31:56Z</time>
      </trkpt>
      <trkpt lat="48.18857" lon="4.85323">
        <ele>321</ele>
        <time>2024-07-03T08:32:04Z</time>
      </trkpt>
      <trkpt lat="48.18833" lon="4.8531">
        <ele>322</ele>
        <time>2024-07-03T08:32:08Z</time>
      </trkpt>
      <trkpt lat="48.18675" lon="4.85195">
        <ele>326</ele>
        <time>2024-07-03T08:32:39Z</time>
      </trkpt>
      <trkpt lat="48.1842" lon="4.85002">
        <ele>329</ele>
        <time>2024-07-03T08:33:30Z</time>
      </trkpt>
      <trkpt lat="48.18391" lon="4.84984">
        <ele>329</ele>
        <time>2024-07-03T08:33:36Z</time>
      </trkpt>
      <trkpt lat="48.18296" lon="4.84944">
        <ele>329</ele>
        <time>2024-07-03T08:33:53Z</time>
      </trkpt>
      <trkpt lat="48.18233" lon="4.84924">
        <ele>327</ele>
        <time>2024-07-03T08:34:05Z</time>
      </trkpt>
      <trkpt lat="48.18203" lon="4.84906">
        <ele>326</ele>
        <time>2024-07-03T08:34:10Z</time>
      </trkpt>
      <trkpt lat="48.18183" lon="4.84887">
        <ele>326</ele>
        <time>2024-07-03T08:34:15Z</time>
      </trkpt>
      <trkpt lat="48.18131" lon="4.84809">
        <ele>328</ele>
        <time>2024-07-03T08:34:28Z</time>
      </trkpt>
      <trkpt lat="48.18023" lon="4.84705">
        <ele>327</ele>
        <time>2024-07-03T08:34:51Z</time>
      </trkpt>
      <trkpt lat="48.18001" lon="4.84671">
        <ele>326</ele>
        <time>2024-07-03T08:34:56Z</time>
      </trkpt>
      <trkpt lat="48.17818" lon="4.84192">
        <ele>325</ele>
        <time>2024-07-03T08:36:02Z</time>
      </trkpt>
      <trkpt lat="48.17801" lon="4.84155">
        <ele>326</ele>
        <time>2024-07-03T08:36:07Z</time>
      </trkpt>
      <trkpt lat="48.1777" lon="4.84109">
        <ele>326</ele>
        <time>2024-07-03T08:36:15Z</time>
      </trkpt>
      <trkpt lat="48.17796" lon="4.84028">
        <ele>325</ele>
        <time>2024-07-03T08:36:25Z</time>
      </trkpt>
      <trkpt lat="48.17858" lon="4.83868">
        <ele>327</ele>
        <time>2024-07-03T08:36:47Z</time>
      </trkpt>
      <trkpt lat="48.17892" lon="4.83812">
        <ele>327</ele>
        <time>2024-07-03T08:36:56Z</time>
      </trkpt>
      <trkpt lat="48.17922" lon="4.83752">
        <ele>329</ele>
        <time>2024-07-03T08:37:05Z</time>
      </trkpt>
      <trkpt lat="48.17936" lon="4.83731">
        <ele>330</ele>
        <time>2024-07-03T08:37:09Z</time>
      </trkpt>
      <trkpt lat="48.17965" lon="4.837">
        <ele>331</ele>
        <time>2024-07-03T08:37:15Z</time>
      </trkpt>
      <trkpt lat="48.17985" lon="4.83652">
        <ele>333</ele>
        <time>2024-07-03T08:37:22Z</time>
      </trkpt>
      <trkpt lat="48.18015" lon="4.83605">
        <ele>333</ele>
        <time>2024-07-03T08:37:30Z</time>
      </trkpt>
      <trkpt lat="48.18025" lon="4.83582">
        <ele>333</ele>
        <time>2024-07-03T08:37:33Z</time>
      </trkpt>
      <trkpt lat="48.18034" lon="4.83547">
        <ele>332</ele>
        <time>2024-07-03T08:37:37Z</time>
      </trkpt>
      <trkpt lat="48.18044" lon="4.83478">
        <ele>332</ele>
        <time>2024-07-03T08:37:46Z</time>
      </trkpt>
      <trkpt lat="48.18062" lon="4.8341">
        <ele>330</ele>
        <time>2024-07-03T08:37:54Z</time>
      </trkpt>
      <trkpt lat="48.18067" lon="4.83355">
        <ele>328</ele>
        <time>2024-07-03T08:38:01Z</time>
      </trkpt>
      <trkpt lat="48.18068" lon="4.83255">
        <ele>326</ele>
        <time>2024-07-03T08:38:13Z</time>
      </trkpt>
      <trkpt lat="48.18085" lon="4.832">
        <ele>324</ele>
        <time>2024-07-03T08:38:20Z</time>
      </trkpt>
      <trkpt lat="48.1811" lon="4.83159">
        <ele>320</ele>
        <time>2024-07-03T08:38:27Z</time>
      </trkpt>
      <trkpt lat="48.1813" lon="4.83141">
        <ele>319</ele>
        <time>2024-07-03T08:38:31Z</time>
      </trkpt>
      <trkpt lat="48.18206" lon="4.83042">
        <ele>314</ele>
        <time>2024-07-03T08:38:49Z</time>
      </trkpt>
      <trkpt lat="48.18247" lon="4.83">
        <ele>313</ele>
        <time>2024-07-03T08:38:58Z</time>
      </trkpt>
      <trkpt lat="48.18286" lon="4.82979">
        <ele>312</ele>
        <time>2024-07-03T08:39:05Z</time>
      </trkpt>
      <trkpt lat="48.18343" lon="4.82961">
        <ele>310</ele>
        <time>2024-07-03T08:39:15Z</time>
      </trkpt>
      <trkpt lat="48.18414" lon="4.82915">
        <ele>309</ele>
        <time>2024-07-03T08:39:29Z</time>
      </trkpt>
      <trkpt lat="48.18433" lon="4.82896">
        <ele>309</ele>
        <time>2024-07-03T08:39:33Z</time>
      </trkpt>
      <trkpt lat="48.18555" lon="4.82749">
        <ele>302</ele>
        <time>2024-07-03T08:40:01Z</time>
      </trkpt>
      <trkpt lat="48.18582" lon="4.82687">
        <ele>299</ele>
        <time>2024-07-03T08:40:10Z</time>
      </trkpt>
      <trkpt lat="48.18604" lon="4.8265">
        <ele>299</ele>
        <time>2024-07-03T08:40:16Z</time>
      </trkpt>
      <trkpt lat="48.1868" lon="4.82575">
        <ele>299</ele>
        <time>2024-07-03T08:40:32Z</time>
      </trkpt>
      <trkpt lat="48.18803" lon="4.82417">
        <ele>297</ele>
        <time>2024-07-03T08:41:01Z</time>
      </trkpt>
      <trkpt lat="48.18825" lon="4.82371">
        <ele>295</ele>
        <time>2024-07-03T08:41:07Z</time>
      </trkpt>
      <trkpt lat="48.18845" lon="4.82275">
        <ele>292</ele>
        <time>2024-07-03T08:41:19Z</time>
      </trkpt>
      <trkpt lat="48.18875" lon="4.82181">
        <ele>291</ele>
        <time>2024-07-03T08:41:32Z</time>
      </trkpt>
      <trkpt lat="48.18926" lon="4.82098">
        <ele>292</ele>
        <time>2024-07-03T08:41:45Z</time>
      </trkpt>
      <trkpt lat="48.18958" lon="4.81992">
        <ele>297</ele>
        <time>2024-07-03T08:41:59Z</time>
      </trkpt>
      <trkpt lat="48.1902" lon="4.81883">
        <ele>293</ele>
        <time>2024-07-03T08:42:16Z</time>
      </trkpt>
      <trkpt lat="48.1906" lon="4.81804">
        <ele>293</ele>
        <time>2024-07-03T08:42:28Z</time>
      </trkpt>
      <trkpt lat="48.19066" lon="4.81775">
        <ele>292</ele>
        <time>2024-07-03T08:42:31Z</time>
      </trkpt>
      <trkpt lat="48.19071" lon="4.81697">
        <ele>292</ele>
        <time>2024-07-03T08:42:40Z</time>
      </trkpt>
      <trkpt lat="48.19082" lon="4.81651">
        <ele>291</ele>
        <time>2024-07-03T08:42:46Z</time>
      </trkpt>
      <trkpt lat="48.19097" lon="4.81618">
        <ele>291</ele>
        <time>2024-07-03T08:42:51Z</time>
      </trkpt>
      <trkpt lat="48.19153" lon="4.81526">
        <ele>289</ele>
        <time>2024-07-03T08:43:06Z</time>
      </trkpt>
      <trkpt lat="48.1916" lon="4.81508">
        <ele>288</ele>
        <time>2024-07-03T08:43:08Z</time>
      </trkpt>
      <trkpt lat="48.19232" lon="4.81232">
        <ele>281</ele>
        <time>2024-07-03T08:43:43Z</time>
      </trkpt>
      <trkpt lat="48.19277" lon="4.81083">
        <ele>280</ele>
        <time>2024-07-03T08:44:03Z</time>
      </trkpt>
      <trkpt lat="48.19283" lon="4.80989">
        <ele>278</ele>
        <time>2024-07-03T08:44:14Z</time>
      </trkpt>
      <trkpt lat="48.19275" lon="4.80816">
        <ele>280</ele>
        <time>2024-07-03T08:44:35Z</time>
      </trkpt>
      <trkpt lat="48.19277" lon="4.80745">
        <ele>282</ele>
        <time>2024-07-03T08:44:43Z</time>
      </trkpt>
      <trkpt lat="48.19298" lon="4.80682">
        <ele>283</ele>
        <time>2024-07-03T08:44:51Z</time>
      </trkpt>
      <trkpt lat="48.19354" lon="4.80562">
        <ele>281</ele>
        <time>2024-07-03T08:45:09Z</time>
      </trkpt>
      <trkpt lat="48.19397" lon="4.80404">
        <ele>276</ele>
        <time>2024-07-03T08:45:29Z</time>
      </trkpt>
      <trkpt lat="48.19397" lon="4.80371">
        <ele>276</ele>
        <time>2024-07-03T08:45:33Z</time>
      </trkpt>
      <trkpt lat="48.19386" lon="4.80296">
        <ele>275</ele>
        <time>2024-07-03T08:45:42Z</time>
      </trkpt>
      <trkpt lat="48.19386" lon="4.8025">
        <ele>273</ele>
        <time>2024-07-03T08:45:47Z</time>
      </trkpt>
      <trkpt lat="48.19401" lon="4.80123">
        <ele>268</ele>
        <time>2024-07-03T08:46:03Z</time>
      </trkpt>
      <trkpt lat="48.19418" lon="4.80061">
        <ele>265</ele>
        <time>2024-07-03T08:46:11Z</time>
      </trkpt>
      <trkpt lat="48.19449" lon="4.80021">
        <ele>261</ele>
        <time>2024-07-03T08:46:18Z</time>
      </trkpt>
      <trkpt lat="48.19463" lon="4.79989">
        <ele>259</ele>
        <time>2024-07-03T08:46:23Z</time>
      </trkpt>
      <trkpt lat="48.19485" lon="4.7989">
        <ele>252</ele>
        <time>2024-07-03T08:46:35Z</time>
      </trkpt>
      <trkpt lat="48.19488" lon="4.79849">
        <ele>248</ele>
        <time>2024-07-03T08:46:40Z</time>
      </trkpt>
      <trkpt lat="48.19465" lon="4.79751">
        <ele>241</ele>
        <time>2024-07-03T08:46:52Z</time>
      </trkpt>
      <trkpt lat="48.19462" lon="4.79663">
        <ele>236</ele>
        <time>2024-07-03T08:47:03Z</time>
      </trkpt>
      <trkpt lat="48.19443" lon="4.79578">
        <ele>231</ele>
        <time>2024-07-03T08:47:13Z</time>
      </trkpt>
      <trkpt lat="48.19432" lon="4.79455">
        <ele>220</ele>
        <time>2024-07-03T08:47:28Z</time>
      </trkpt>
      <trkpt lat="48.19434" lon="4.79401">
        <ele>217</ele>
        <time>2024-07-03T08:47:34Z</time>
      </trkpt>
      <trkpt lat="48.19446" lon="4.79343">
        <ele>215</ele>
        <time>2024-07-03T08:47:42Z</time>
      </trkpt>
      <trkpt lat="48.19499" lon="4.79216">
        <ele>211</ele>
        <time>2024-07-03T08:47:59Z</time>
      </trkpt>
      <trkpt lat="48.19504" lon="4.79188">
        <ele>210</ele>
        <time>2024-07-03T08:48:03Z</time>
      </trkpt>
      <trkpt lat="48.19509" lon="4.79082">
        <ele>203</ele>
        <time>2024-07-03T08:48:15Z</time>
      </trkpt>
      <trkpt lat="48.1954" lon="4.78975">
        <ele>194</ele>
        <time>2024-07-03T08:48:29Z</time>
      </trkpt>
      <trkpt lat="48.19551" lon="4.78848">
        <ele>188</ele>
        <time>2024-07-03T08:48:44Z</time>
      </trkpt>
      <trkpt lat="48.1957" lon="4.78772">
        <ele>186</ele>
        <time>2024-07-03T08:48:54Z</time>
      </trkpt>
      <trkpt lat="48.19589" lon="4.7871">
        <ele>184</ele>
        <time>2024-07-03T08:49:02Z</time>
      </trkpt>
      <trkpt lat="48.19605" lon="4.78676">
        <ele>183</ele>
        <time>2024-07-03T08:49:07Z</time>
      </trkpt>
      <trkpt lat="48.19606" lon="4.78665">
        <ele>182</ele>
        <time>2024-07-03T08:49:08Z</time>
      </trkpt>
      <trkpt lat="48.19589" lon="4.78663">
        <ele>182</ele>
        <time>2024-07-03T08:49:11Z</time>
      </trkpt>
      <trkpt lat="48.19559" lon="4.78668">
        <ele>181</ele>
        <time>2024-07-03T08:49:17Z</time>
      </trkpt>
      <trkpt lat="48.19521" lon="4.78683">
        <ele>181</ele>
        <time>2024-07-03T08:49:24Z</time>
      </trkpt>
      <trkpt lat="48.19449" lon="4.78751">
        <ele>183</ele>
        <time>2024-07-03T08:49:39Z</time>
      </trkpt>
      <trkpt lat="48.19444" lon="4.78746">
        <ele>183</ele>
        <time>2024-07-03T08:49:40Z</time>
      </trkpt>
      <trkpt lat="48.19428" lon="4.78704">
        <ele>181</ele>
        <time>2024-07-03T08:49:46Z</time>
      </trkpt>
      <trkpt lat="48.19413" lon="4.78693">
        <ele>181</ele>
        <time>2024-07-03T08:49:49Z</time>
      </trkpt>
      <trkpt lat="48.19229" lon="4.78686">
        <ele>181</ele>
        <time>2024-07-03T08:50:21Z</time>
      </trkpt>
      <trkpt lat="48.19192" lon="4.78672">
        <ele>180</ele>
        <time>2024-07-03T08:50:28Z</time>
      </trkpt>
      <trkpt lat="48.19138" lon="4.78633">
        <ele>180</ele>
        <time>2024-07-03T08:50:39Z</time>
      </trkpt>
      <trkpt lat="48.19111" lon="4.78591">
        <ele>180</ele>
        <time>2024-07-03T08:50:46Z</time>
      </trkpt>
      <trkpt lat="48.19053" lon="4.7855">
        <ele>179</ele>
        <time>2024-07-03T08:50:57Z</time>
      </trkpt>
      <trkpt lat="48.19014" lon="4.78511">
        <ele>179</ele>
        <time>2024-07-03T08:51:06Z</time>
      </trkpt>
      <trkpt lat="48.18972" lon="4.78429">
        <ele>179</ele>
        <time>2024-07-03T08:51:18Z</time>
      </trkpt>
      <trkpt lat="48.18937" lon="4.78333">
        <ele>179</ele>
        <time>2024-07-03T08:51:31Z</time>
      </trkpt>
      <trkpt lat="48.18901" lon="4.78269">
        <ele>186</ele>
        <time>2024-07-03T08:51:41Z</time>
      </trkpt>
      <trkpt lat="48.18888" lon="4.78275">
        <ele>189</ele>
        <time>2024-07-03T08:51:43Z</time>
      </trkpt>
      <trkpt lat="48.18866" lon="4.78306">
        <ele>193</ele>
        <time>2024-07-03T08:51:48Z</time>
      </trkpt>
      <trkpt lat="48.18841" lon="4.78353">
        <ele>195</ele>
        <time>2024-07-03T08:51:56Z</time>
      </trkpt>
      <trkpt lat="48.18758" lon="4.78482">
        <ele>198</ele>
        <time>2024-07-03T08:52:17Z</time>
      </trkpt>
      <trkpt lat="48.18708" lon="4.78594">
        <ele>197</ele>
        <time>2024-07-03T08:52:33Z</time>
      </trkpt>
      <trkpt lat="48.18666" lon="4.78724">
        <ele>204</ele>
        <time>2024-07-03T08:52:50Z</time>
      </trkpt>
      <trkpt lat="48.18641" lon="4.78746">
        <ele>203</ele>
        <time>2024-07-03T08:52:55Z</time>
      </trkpt>
      <trkpt lat="48.18625" lon="4.78748">
        <ele>203</ele>
        <time>2024-07-03T08:52:58Z</time>
      </trkpt>
      <trkpt lat="48.18618" lon="4.78744">
        <ele>203</ele>
        <time>2024-07-03T08:52:59Z</time>
      </trkpt>
      <trkpt lat="48.18606" lon="4.78734">
        <ele>203</ele>
        <time>2024-07-03T08:53:02Z</time>
      </trkpt>
      <trkpt lat="48.18575" lon="4.78691">
        <ele>205</ele>
        <time>2024-07-03T08:53:09Z</time>
      </trkpt>
      <trkpt lat="48.18558" lon="4.78682">
        <ele>205</ele>
        <time>2024-07-03T08:53:13Z</time>
      </trkpt>
      <trkpt lat="48.18544" lon="4.7868">
        <ele>206</ele>
        <time>2024-07-03T08:53:15Z</time>
      </trkpt>
      <trkpt lat="48.18494" lon="4.78705">
        <ele>206</ele>
        <time>2024-07-03T08:53:24Z</time>
      </trkpt>
      <trkpt lat="48.18484" lon="4.78698">
        <ele>206</ele>
        <time>2024-07-03T08:53:26Z</time>
      </trkpt>
      <trkpt lat="48.18476" lon="4.78699">
        <ele>206</ele>
        <time>2024-07-03T08:53:28Z</time>
      </trkpt>
      <trkpt lat="48.18461" lon="4.78718">
        <ele>206</ele>
        <time>2024-07-03T08:53:31Z</time>
      </trkpt>
      <trkpt lat="48.18426" lon="4.78785">
        <ele>201</ele>
        <time>2024-07-03T08:53:41Z</time>
      </trkpt>
      <trkpt lat="48.18424" lon="4.78759">
        <ele>203</ele>
        <time>2024-07-03T08:53:44Z</time>
      </trkpt>
      <trkpt lat="48.18427" lon="4.78741">
        <ele>204</ele>
        <time>2024-07-03T08:53:47Z</time>
      </trkpt>
      <trkpt lat="48.18382" lon="4.78729">
        <ele>201</ele>
        <time>2024-07-03T08:53:55Z</time>
      </trkpt>
      <trkpt lat="48.18352" lon="4.78705">
        <ele>199</ele>
        <time>2024-07-03T08:54:01Z</time>
      </trkpt>
      <trkpt lat="48.18267" lon="4.78595">
        <ele>194</ele>
        <time>2024-07-03T08:54:21Z</time>
      </trkpt>
      <trkpt lat="48.1823" lon="4.78541">
        <ele>192</ele>
        <time>2024-07-03T08:54:30Z</time>
      </trkpt>
      <trkpt lat="48.18232" lon="4.7847">
        <ele>195</ele>
        <time>2024-07-03T08:54:38Z</time>
      </trkpt>
      <trkpt lat="48.18228" lon="4.78382">
        <ele>199</ele>
        <time>2024-07-03T08:54:49Z</time>
      </trkpt>
      <trkpt lat="48.18199" lon="4.78219">
        <ele>204</ele>
        <time>2024-07-03T08:55:09Z</time>
      </trkpt>
      <trkpt lat="48.18195" lon="4.78078">
        <ele>205</ele>
        <time>2024-07-03T08:55:26Z</time>
      </trkpt>
      <trkpt lat="48.18184" lon="4.77986">
        <ele>205</ele>
        <time>2024-07-03T08:55:37Z</time>
      </trkpt>
      <trkpt lat="48.18167" lon="4.77941">
        <ele>206</ele>
        <time>2024-07-03T08:55:43Z</time>
      </trkpt>
      <trkpt lat="48.18096" lon="4.77832">
        <ele>209</ele>
        <time>2024-07-03T08:56:01Z</time>
      </trkpt>
      <trkpt lat="48.1803" lon="4.777">
        <ele>212</ele>
        <time>2024-07-03T08:56:21Z</time>
      </trkpt>
      <trkpt lat="48.18002" lon="4.7762">
        <ele>210</ele>
        <time>2024-07-03T08:56:31Z</time>
      </trkpt>
      <trkpt lat="48.17966" lon="4.77464">
        <ele>217</ele>
        <time>2024-07-03T08:56:51Z</time>
      </trkpt>
      <trkpt lat="48.17928" lon="4.77381">
        <ele>214</ele>
        <time>2024-07-03T08:57:03Z</time>
      </trkpt>
      <trkpt lat="48.17886" lon="4.77262">
        <ele>217</ele>
        <time>2024-07-03T08:57:19Z</time>
      </trkpt>
      <trkpt lat="48.17822" lon="4.77101">
        <ele>217</ele>
        <time>2024-07-03T08:57:41Z</time>
      </trkpt>
      <trkpt lat="48.17805" lon="4.77037">
        <ele>222</ele>
        <time>2024-07-03T08:57:49Z</time>
      </trkpt>
      <trkpt lat="48.17793" lon="4.76968">
        <ele>224</ele>
        <time>2024-07-03T08:57:58Z</time>
      </trkpt>
      <trkpt lat="48.17767" lon="4.76733">
        <ele>223</ele>
        <time>2024-07-03T08:58:26Z</time>
      </trkpt>
      <trkpt lat="48.17742" lon="4.76618">
        <ele>223</ele>
        <time>2024-07-03T08:58:40Z</time>
      </trkpt>
      <trkpt lat="48.17711" lon="4.76562">
        <ele>224</ele>
        <time>2024-07-03T08:58:49Z</time>
      </trkpt>
      <trkpt lat="48.1764" lon="4.76479">
        <ele>221</ele>
        <time>2024-07-03T08:59:05Z</time>
      </trkpt>
      <trkpt lat="48.17625" lon="4.76446">
        <ele>222</ele>
        <time>2024-07-03T08:59:10Z</time>
      </trkpt>
      <trkpt lat="48.17611" lon="4.76268">
        <ele>228</ele>
        <time>2024-07-03T08:59:31Z</time>
      </trkpt>
      <trkpt lat="48.17612" lon="4.76215">
        <ele>230</ele>
        <time>2024-07-03T08:59:37Z</time>
      </trkpt>
      <trkpt lat="48.17626" lon="4.76072">
        <ele>235</ele>
        <time>2024-07-03T08:59:54Z</time>
      </trkpt>
      <trkpt lat="48.17628" lon="4.76003">
        <ele>236</ele>
        <time>2024-07-03T09:00:03Z</time>
      </trkpt>
      <trkpt lat="48.17624" lon="4.75938">
        <ele>237</ele>
        <time>2024-07-03T09:00:10Z</time>
      </trkpt>
      <trkpt lat="48.17595" lon="4.75793">
        <ele>236</ele>
        <time>2024-07-03T09:00:28Z</time>
      </trkpt>
      <trkpt lat="48.17562" lon="4.75674">
        <ele>241</ele>
        <time>2024-07-03T09:00:44Z</time>
      </trkpt>
      <trkpt lat="48.17549" lon="4.75599">
        <ele>244</ele>
        <time>2024-07-03T09:00:53Z</time>
      </trkpt>
      <trkpt lat="48.17527" lon="4.75366">
        <ele>244</ele>
        <time>2024-07-03T09:01:21Z</time>
      </trkpt>
      <trkpt lat="48.17528" lon="4.75132">
        <ele>251</ele>
        <time>2024-07-03T09:01:48Z</time>
      </trkpt>
      <trkpt lat="48.17523" lon="4.75046">
        <ele>252</ele>
        <time>2024-07-03T09:01:59Z</time>
      </trkpt>
      <trkpt lat="48.17519" lon="4.75012">
        <ele>251</ele>
        <time>2024-07-03T09:02:03Z</time>
      </trkpt>
      <trkpt lat="48.17492" lon="4.74896">
        <ele>251</ele>
        <time>2024-07-03T09:02:17Z</time>
      </trkpt>
      <trkpt lat="48.17479" lon="4.74801">
        <ele>253</ele>
        <time>2024-07-03T09:02:29Z</time>
      </trkpt>
      <trkpt lat="48.17479" lon="4.74756">
        <ele>253</ele>
        <time>2024-07-03T09:02:34Z</time>
      </trkpt>
      <trkpt lat="48.17491" lon="4.74613">
        <ele>257</ele>
        <time>2024-07-03T09:02:51Z</time>
      </trkpt>
      <trkpt lat="48.17491" lon="4.74541">
        <ele>260</ele>
        <time>2024-07-03T09:03:00Z</time>
      </trkpt>
      <trkpt lat="48.17486" lon="4.74495">
        <ele>263</ele>
        <time>2024-07-03T09:03:05Z</time>
      </trkpt>
      <trkpt lat="48.17472" lon="4.74428">
        <ele>265</ele>
        <time>2024-07-03T09:03:14Z</time>
      </trkpt>
      <trkpt lat="48.17439" lon="4.74328">
        <ele>267</ele>
        <time>2024-07-03T09:03:27Z</time>
      </trkpt>
      <trkpt lat="48.17432" lon="4.74327">
        <ele>267</ele>
        <time>2024-07-03T09:03:28Z</time>
      </trkpt>
      <trkpt lat="48.17419" lon="4.74339">
        <ele>267</ele>
        <time>2024-07-03T09:03:31Z</time>
      </trkpt>
      <trkpt lat="48.16962" lon="4.74862">
        <ele>272</ele>
        <time>2024-07-03T09:05:13Z</time>
      </trkpt>
      <trkpt lat="48.16661" lon="4.75192">
        <ele>288</ele>
        <time>2024-07-03T09:06:20Z</time>
      </trkpt>
      <trkpt lat="48.1661" lon="4.75255">
        <ele>289</ele>
        <time>2024-07-03T09:06:31Z</time>
      </trkpt>
      <trkpt lat="48.16585" lon="4.75279">
        <ele>289</ele>
        <time>2024-07-03T09:06:37Z</time>
      </trkpt>
      <trkpt lat="48.16281" lon="4.75623">
        <ele>293</ele>
        <time>2024-07-03T09:07:44Z</time>
      </trkpt>
      <trkpt lat="48.16138" lon="4.75777">
        <ele>287</ele>
        <time>2024-07-03T09:08:16Z</time>
      </trkpt>
      <trkpt lat="48.16065" lon="4.75746">
        <ele>286</ele>
        <time>2024-07-03T09:08:29Z</time>
      </trkpt>
      <trkpt lat="48.15853" lon="4.75637">
        <ele>291</ele>
        <time>2024-07-03T09:09:09Z</time>
      </trkpt>
      <trkpt lat="48.15824" lon="4.75647">
        <ele>291</ele>
        <time>2024-07-03T09:09:14Z</time>
      </trkpt>
      <trkpt lat="48.15744" lon="4.75703">
        <ele>291</ele>
        <time>2024-07-03T09:09:30Z</time>
      </trkpt>
      <trkpt lat="48.15732" lon="4.75715">
        <ele>291</ele>
        <time>2024-07-03T09:09:33Z</time>
      </trkpt>
      <trkpt lat="48.15717" lon="4.75736">
        <ele>291</ele>
        <time>2024-07-03T09:09:36Z</time>
      </trkpt>
      <trkpt lat="48.15709" lon="4.75755">
        <ele>291</ele>
        <time>2024-07-03T09:09:39Z</time>
      </trkpt>
      <trkpt lat="48.15667" lon="4.75926">
        <ele>288</ele>
        <time>2024-07-03T09:10:01Z</time>
      </trkpt>
      <trkpt lat="48.15651" lon="4.75965">
        <ele>288</ele>
        <time>2024-07-03T09:10:06Z</time>
      </trkpt>
      <trkpt lat="48.15636" lon="4.75983">
        <ele>288</ele>
        <time>2024-07-03T09:10:09Z</time>
      </trkpt>
      <trkpt lat="48.15569" lon="4.76042">
        <ele>286</ele>
        <time>2024-07-03T09:10:23Z</time>
      </trkpt>
      <trkpt lat="48.15557" lon="4.76061">
        <ele>285</ele>
        <time>2024-07-03T09:10:26Z</time>
      </trkpt>
      <trkpt lat="48.15543" lon="4.76097">
        <ele>284</ele>
        <time>2024-07-03T09:10:31Z</time>
      </trkpt>
      <trkpt lat="48.15538" lon="4.76137">
        <ele>283</ele>
        <time>2024-07-03T09:10:36Z</time>
      </trkpt>
      <trkpt lat="48.1554" lon="4.7619">
        <ele>281</ele>
        <time>2024-07-03T09:10:42Z</time>
      </trkpt>
      <trkpt lat="48.15536" lon="4.76261">
        <ele>279</ele>
        <time>2024-07-03T09:10:51Z</time>
      </trkpt>
      <trkpt lat="48.15555" lon="4.76381">
        <ele>272</ele>
        <time>2024-07-03T09:11:06Z</time>
      </trkpt>
      <trkpt lat="48.15556" lon="4.76415">
        <ele>270</ele>
        <time>2024-07-03T09:11:10Z</time>
      </trkpt>
      <trkpt lat="48.15562" lon="4.76424">
        <ele>270</ele>
        <time>2024-07-03T09:11:11Z</time>
      </trkpt>
      <trkpt lat="48.15555" lon="4.76439">
        <ele>270</ele>
        <time>2024-07-03T09:11:13Z</time>
      </trkpt>
      <trkpt lat="48.15535" lon="4.7646">
        <ele>269</ele>
        <time>2024-07-03T09:11:18Z</time>
      </trkpt>
      <trkpt lat="48.15515" lon="4.7647">
        <ele>268</ele>
        <time>2024-07-03T09:11:21Z</time>
      </trkpt>
      <trkpt lat="48.15358" lon="4.76519">
        <ele>260</ele>
        <time>2024-07-03T09:11:50Z</time>
      </trkpt>
      <trkpt lat="48.15322" lon="4.76528">
        <ele>260</ele>
        <time>2024-07-03T09:11:56Z</time>
      </trkpt>
      <trkpt lat="48.15273" lon="4.76534">
        <ele>260</ele>
        <time>2024-07-03T09:12:05Z</time>
      </trkpt>
      <trkpt lat="48.15243" lon="4.7655">
        <ele>260</ele>
        <time>2024-07-03T09:12:11Z</time>
      </trkpt>
      <trkpt lat="48.15213" lon="4.76582">
        <ele>261</ele>
        <time>2024-07-03T09:12:17Z</time>
      </trkpt>
      <trkpt lat="48.15182" lon="4.76662">
        <ele>254</ele>
        <time>2024-07-03T09:12:28Z</time>
      </trkpt>
      <trkpt lat="48.15125" lon="4.76745">
        <ele>251</ele>
        <time>2024-07-03T09:12:42Z</time>
      </trkpt>
      <trkpt lat="48.15083" lon="4.76786">
        <ele>250</ele>
        <time>2024-07-03T09:12:51Z</time>
      </trkpt>
      <trkpt lat="48.15033" lon="4.76824">
        <ele>252</ele>
        <time>2024-07-03T09:13:01Z</time>
      </trkpt>
      <trkpt lat="48.14991" lon="4.76876">
        <ele>247</ele>
        <time>2024-07-03T09:13:11Z</time>
      </trkpt>
      <trkpt lat="48.14968" lon="4.76893">
        <ele>244</ele>
        <time>2024-07-03T09:13:16Z</time>
      </trkpt>
      <trkpt lat="48.14936" lon="4.769">
        <ele>242</ele>
        <time>2024-07-03T09:13:21Z</time>
      </trkpt>
      <trkpt lat="48.14845" lon="4.76879">
        <ele>238</ele>
        <time>2024-07-03T09:13:38Z</time>
      </trkpt>
      <trkpt lat="48.14805" lon="4.76882">
        <ele>235</ele>
        <time>2024-07-03T09:13:45Z</time>
      </trkpt>
      <trkpt lat="48.14718" lon="4.76919">
        <ele>226</ele>
        <time>2024-07-03T09:14:01Z</time>
      </trkpt>
      <trkpt lat="48.14657" lon="4.76929">
        <ele>218</ele>
        <time>2024-07-03T09:14:12Z</time>
      </trkpt>
      <trkpt lat="48.14559" lon="4.77363">
        <ele>216</ele>
        <time>2024-07-03T09:15:06Z</time>
      </trkpt>
      <trkpt lat="48.14613" lon="4.77846">
        <ele>209</ele>
        <time>2024-07-03T09:16:04Z</time>
      </trkpt>
      <trkpt lat="48.14588" lon="4.77898">
        <ele>201</ele>
        <time>2024-07-03T09:16:12Z</time>
      </trkpt>
      <trkpt lat="48.14515" lon="4.77927">
        <ele>195</ele>
        <time>2024-07-03T09:16:25Z</time>
      </trkpt>
      <trkpt lat="48.1443" lon="4.77935">
        <ele>197</ele>
        <time>2024-07-03T09:16:41Z</time>
      </trkpt>
      <trkpt lat="48.14394" lon="4.78105">
        <ele>203</ele>
        <time>2024-07-03T09:17:02Z</time>
      </trkpt>
      <trkpt lat="48.14422" lon="4.7825">
        <ele>204</ele>
        <time>2024-07-03T09:17:20Z</time>
      </trkpt>
      <trkpt lat="48.14546" lon="4.78631">
        <ele>196</ele>
        <time>2024-07-03T09:18:10Z</time>
      </trkpt>
      <trkpt lat="48.14512" lon="4.78848">
        <ele>209</ele>
        <time>2024-07-03T09:18:37Z</time>
      </trkpt>
      <trkpt lat="48.14538" lon="4.78854">
        <ele>202</ele>
        <time>2024-07-03T09:18:41Z</time>
      </trkpt>
      <trkpt lat="48.14525" lon="4.78967">
        <ele>197</ele>
        <time>2024-07-03T09:18:55Z</time>
      </trkpt>
      <trkpt lat="48.14483" lon="4.78972">
        <ele>200</ele>
        <time>2024-07-03T09:19:02Z</time>
      </trkpt>
      <trkpt lat="48.14272" lon="4.78982">
        <ele>200</ele>
        <time>2024-07-03T09:19:40Z</time>
      </trkpt>
      <trkpt lat="48.14029" lon="4.78898">
        <ele>208</ele>
        <time>2024-07-03T09:20:24Z</time>
      </trkpt>
      <trkpt lat="48.13463" lon="4.78967">
        <ele>199</ele>
        <time>2024-07-03T09:22:05Z</time>
      </trkpt>
      <trkpt lat="48.13092" lon="4.78917">
        <ele>200</ele>
        <time>2024-07-03T09:23:12Z</time>
      </trkpt>
      <trkpt lat="48.12879" lon="4.78941">
        <ele>196</ele>
        <time>2024-07-03T09:23:50Z</time>
      </trkpt>
      <trkpt lat="48.12604" lon="4.78742">
        <ele>200</ele>
        <time>2024-07-03T09:24:44Z</time>
      </trkpt>
      <trkpt lat="48.12316" lon="4.7863">
        <ele>205</ele>
        <time>2024-07-03T09:25:37Z</time>
      </trkpt>
      <trkpt lat="48.12177" lon="4.78654">
        <ele>202</ele>
        <time>2024-07-03T09:26:02Z</time>
      </trkpt>
      <trkpt lat="48.12168" lon="4.78976">
        <ele>197</ele>
        <time>2024-07-03T09:26:40Z</time>
      </trkpt>
      <trkpt lat="48.12013" lon="4.79099">
        <ele>198</ele>
        <time>2024-07-03T09:27:11Z</time>
      </trkpt>
      <trkpt lat="48.12027" lon="4.79355">
        <ele>192</ele>
        <time>2024-07-03T09:27:42Z</time>
      </trkpt>
      <trkpt lat="48.11923" lon="4.79456">
        <ele>192</ele>
        <time>2024-07-03T09:28:04Z</time>
      </trkpt>
      <trkpt lat="48.11727" lon="4.79488">
        <ele>192</ele>
        <time>2024-07-03T09:28:39Z</time>
      </trkpt>
      <trkpt lat="48.117" lon="4.79704">
        <ele>192</ele>
        <time>2024-07-03T09:29:05Z</time>
      </trkpt>
      <trkpt lat="48.11592" lon="4.79767">
        <ele>194</ele>
        <time>2024-07-03T09:29:26Z</time>
      </trkpt>
      <trkpt lat="48.11584" lon="4.80002">
        <ele>206</ele>
        <time>2024-07-03T09:29:54Z</time>
      </trkpt>
      <trkpt lat="48.12542" lon="4.79958">
        <ele>217</ele>
        <time>2024-07-03T09:32:44Z</time>
      </trkpt>
      <trkpt lat="48.13968" lon="4.804">
        <ele>204</ele>
        <time>2024-07-03T09:37:03Z</time>
      </trkpt>
      <trkpt lat="48.14305" lon="4.80412">
        <ele>207</ele>
        <time>2024-07-03T09:38:03Z</time>
      </trkpt>
      <trkpt lat="48.147" lon="4.82827">
        <ele>207</ele>
        <time>2024-07-03T09:42:58Z</time>
      </trkpt>
      <trkpt lat="48.15146" lon="4.83254">
        <ele>193</ele>
        <time>2024-07-03T09:44:33Z</time>
      </trkpt>
      <trkpt lat="48.15071" lon="4.83271">
        <ele>195</ele>
        <time>2024-07-03T09:44:46Z</time>
      </trkpt>
    </trkseg>
  </trk>
</gpx>